sensor_id;sensor_type;location;lat;lon;timestamp;pressure;altitude;pressure_sealevel;temperature;humidity
74268;BME280;62638;51.362;12.472;2022-11-03T00:01:41;100842.25;;;5.68;95.07
74268;BME280;62638;51.362;12.472;2022-11-03T00:04:12;100844.41;;;5.61;95.28
74268;BME280;62638;51.362;12.472;2022-11-03T00:06:39;100835.41;;;5.64;95.81
74268;BME280;62638;51.362;12.472;2022-11-03T00:09:07;100838.94;;;5.64;96.14
74268;BME280;62638;51.362;12.472;2022-11-03T00:11:34;100836.09;;;5.53;95.91
74268;BME280;62638;51.362;12.472;2022-11-03T00:13:59;100830.69;;;5.40;96.17
74268;BME280;62638;51.362;12.472;2022-11-03T00:16:25;100833.28;;;5.28;96.94
74268;BME280;62638;51.362;12.472;2022-11-03T00:18:51;100836.06;;;5.26;97.37
74268;BME280;62638;51.362;12.472;2022-11-03T00:21:16;100830.75;;;5.26;97.21
74268;BME280;62638;51.362;12.472;2022-11-03T00:23:43;100832.25;;;5.16;97.48
74268;BME280;62638;51.362;12.472;2022-11-03T00:28:34;100823.34;;;5.17;97.68
74268;BME280;62638;51.362;12.472;2022-11-03T00:31:00;100819.91;;;5.29;97.83
74268;BME280;62638;51.362;12.472;2022-11-03T00:33:30;100810.16;;;5.30;98.00
74268;BME280;62638;51.362;12.472;2022-11-03T00:35:57;100815.34;;;5.45;98.17
74268;BME280;62638;51.362;12.472;2022-11-03T00:38:23;100812.66;;;5.60;98.18
74268;BME280;62638;51.362;12.472;2022-11-03T00:40:55;100807.13;;;5.63;98.25
74268;BME280;62638;51.362;12.472;2022-11-03T00:43:22;100818.13;;;5.71;97.98
74268;BME280;62638;51.362;12.472;2022-11-03T00:45:48;100818.13;;;5.71;97.54
74268;BME280;62638;51.362;12.472;2022-11-03T00:48:14;100815.94;;;5.77;98.00
74268;BME280;62638;51.362;12.472;2022-11-03T00:51:10;100826.09;;;6.12;97.54
74268;BME280;62638;51.362;12.472;2022-11-03T00:53:37;100823.16;;;6.29;96.31
74268;BME280;62638;51.362;12.472;2022-11-03T00:56:05;100825.50;;;6.33;95.72
74268;BME280;62638;51.362;12.472;2022-11-03T00:58:31;100825.06;;;6.39;95.69
74268;BME280;62638;51.362;12.472;2022-11-03T01:01:05;100822.31;;;6.41;95.47
74268;BME280;62638;51.362;12.472;2022-11-03T01:03:32;100815.75;;;6.47;95.38
74268;BME280;62638;51.362;12.472;2022-11-03T01:05:58;100811.44;;;6.31;95.47
74268;BME280;62638;51.362;12.472;2022-11-03T01:08:42;100812.53;;;6.02;95.97
74268;BME280;62638;51.362;12.472;2022-11-03T01:11:10;100818.25;;;5.69;96.36
74268;BME280;62638;51.362;12.472;2022-11-03T01:13:55;100824.38;;;5.29;97.32
74268;BME280;62638;51.362;12.472;2022-11-03T01:16:21;100822.94;;;5.09;98.41
74268;BME280;62638;51.362;12.472;2022-11-03T01:18:47;100814.34;;;4.91;99.28
74268;BME280;62638;51.362;12.472;2022-11-03T01:21:12;100816.03;;;4.92;99.71
74268;BME280;62638;51.362;12.472;2022-11-03T01:23:38;100808.75;;;4.82;100.00
74268;BME280;62638;51.362;12.472;2022-11-03T01:26:07;100803.63;;;4.79;100.00
74268;BME280;62638;51.362;12.472;2022-11-03T01:28:34;100802.28;;;4.72;100.00
74268;BME280;62638;51.362;12.472;2022-11-03T01:31:07;100805.03;;;4.70;100.00
74268;BME280;62638;51.362;12.472;2022-11-03T01:33:33;100800.56;;;4.71;100.00
74268;BME280;62638;51.362;12.472;2022-11-03T01:35:59;100791.94;;;4.67;100.00
74268;BME280;62638;51.362;12.472;2022-11-03T01:38:25;100797.63;;;4.61;100.00
74268;BME280;62638;51.362;12.472;2022-11-03T01:40:50;100796.28;;;4.54;100.00
74268;BME280;62638;51.362;12.472;2022-11-03T01:43:21;100792.97;;;4.50;100.00
74268;BME280;62638;51.362;12.472;2022-11-03T01:45:54;100788.72;;;4.48;100.00
74268;BME280;62638;51.362;12.472;2022-11-03T01:48:24;100786.34;;;4.43;100.00
74268;BME280;62638;51.362;12.472;2022-11-03T01:50:50;100775.72;;;4.57;100.00
74268;BME280;62638;51.362;12.472;2022-11-03T01:53:17;100778.88;;;4.78;100.00
74268;BME280;62638;51.362;12.472;2022-11-03T01:55:43;100776.13;;;5.08;100.00
74268;BME280;62638;51.362;12.472;2022-11-03T01:58:22;100764.72;;;5.20;100.00
74268;BME280;62638;51.362;12.472;2022-11-03T02:00:51;100770.88;;;5.35;100.00
74268;BME280;62638;51.362;12.472;2022-11-03T02:03:19;100762.97;;;5.47;100.00
74268;BME280;62638;51.362;12.472;2022-11-03T02:05:47;100752.88;;;5.53;100.00
74268;BME280;62638;51.362;12.472;2022-11-03T02:08:20;100744.31;;;5.62;99.86
74268;BME280;62638;51.362;12.472;2022-11-03T02:10:48;100736.03;;;5.66;99.84
74268;BME280;62638;51.362;12.472;2022-11-03T02:13:20;100737.88;;;5.78;98.82
74268;BME280;62638;51.362;12.472;2022-11-03T02:15:47;100732.53;;;5.66;99.19
74268;BME280;62638;51.362;12.472;2022-11-03T02:18:15;100734.84;;;5.58;99.27
74268;BME280;62638;51.362;12.472;2022-11-03T02:20:43;100728.44;;;5.47;99.56
74268;BME280;62638;51.362;12.472;2022-11-03T02:23:21;100724.97;;;5.60;99.89
74268;BME280;62638;51.362;12.472;2022-11-03T02:25:52;100723.22;;;5.73;99.02
74268;BME280;62638;51.362;12.472;2022-11-03T02:28:24;100718.63;;;5.48;99.08
74268;BME280;62638;51.362;12.472;2022-11-03T02:34:20;100717.25;;;5.01;99.31
74268;BME280;62638;51.362;12.472;2022-11-03T02:37:24;100709.63;;;4.83;100.00
74268;BME280;62638;51.362;12.472;2022-11-03T02:40:13;100710.06;;;4.89;100.00
74268;BME280;62638;51.362;12.472;2022-11-03T02:42:41;100703.25;;;4.71;100.00
74268;BME280;62638;51.362;12.472;2022-11-03T02:45:10;100706.03;;;4.70;100.00
74268;BME280;62638;51.362;12.472;2022-11-03T02:47:38;100693.13;;;4.64;100.00
74268;BME280;62638;51.362;12.472;2022-11-03T02:50:06;100703.16;;;4.58;100.00
74268;BME280;62638;51.362;12.472;2022-11-03T02:52:38;100690.97;;;4.56;100.00
74268;BME280;62638;51.362;12.472;2022-11-03T02:55:40;100694.34;;;4.58;100.00
74268;BME280;62638;51.362;12.472;2022-11-03T02:58:26;100686.88;;;4.50;100.00
74268;BME280;62638;51.362;12.472;2022-11-03T03:01:03;100687.06;;;4.47;100.00
74268;BME280;62638;51.362;12.472;2022-11-03T03:03:43;100687.84;;;4.35;100.00
74268;BME280;62638;51.362;12.472;2022-11-03T03:06:20;100686.69;;;4.25;100.00
74268;BME280;62638;51.362;12.472;2022-11-03T03:08:50;100687.53;;;4.26;100.00
74268;BME280;62638;51.362;12.472;2022-11-03T03:11:18;100673.78;;;4.19;100.00
74268;BME280;62638;51.362;12.472;2022-11-03T03:14:04;100674.25;;;4.11;100.00
74268;BME280;62638;51.362;12.472;2022-11-03T03:16:33;100665.66;;;4.08;100.00
74268;BME280;62638;51.362;12.472;2022-11-03T03:21:37;100676.22;;;3.94;100.00
74268;BME280;62638;51.362;12.472;2022-11-03T03:24:09;100658.59;;;3.93;100.00
74268;BME280;62638;51.362;12.472;2022-11-03T03:26:41;100661.16;;;3.94;100.00
74268;BME280;62638;51.362;12.472;2022-11-03T03:29:13;100654.66;;;4.00;100.00
74268;BME280;62638;51.362;12.472;2022-11-03T03:31:42;100646.47;;;3.89;100.00
74268;BME280;62638;51.362;12.472;2022-11-03T03:34:12;100648.00;;;3.93;100.00
74268;BME280;62638;51.362;12.472;2022-11-03T03:36:40;100642.53;;;3.96;100.00
74268;BME280;62638;51.362;12.472;2022-11-03T03:39:09;100636.69;;;4.05;100.00
74268;BME280;62638;51.362;12.472;2022-11-03T03:41:37;100636.09;;;4.00;100.00
74268;BME280;62638;51.362;12.472;2022-11-03T03:44:05;100637.06;;;4.13;100.00
74268;BME280;62638;51.362;12.472;2022-11-03T03:46:36;100636.66;;;4.19;100.00
74268;BME280;62638;51.362;12.472;2022-11-03T03:49:04;100629.84;;;4.15;100.00
74268;BME280;62638;51.362;12.472;2022-11-03T03:51:30;100636.00;;;4.16;100.00
74268;BME280;62638;51.362;12.472;2022-11-03T03:53:55;100634.59;;;4.10;100.00
74268;BME280;62638;51.362;12.472;2022-11-03T03:56:32;100623.16;;;4.09;100.00
74268;BME280;62638;51.362;12.472;2022-11-03T03:59:00;100616.41;;;4.04;100.00
74268;BME280;62638;51.362;12.472;2022-11-03T04:01:25;100610.44;;;4.15;100.00
74268;BME280;62638;51.362;12.472;2022-11-03T04:03:50;100607.78;;;4.15;100.00
74268;BME280;62638;51.362;12.472;2022-11-03T04:06:16;100604.78;;;4.21;100.00
74268;BME280;62638;51.362;12.472;2022-11-03T04:08:41;100620.97;;;4.16;100.00
74268;BME280;62638;51.362;12.472;2022-11-03T04:11:06;100615.66;;;4.16;100.00
74268;BME280;62638;51.362;12.472;2022-11-03T04:13:50;100613.50;;;4.23;100.00
74268;BME280;62638;51.362;12.472;2022-11-03T04:16:51;100602.50;;;4.29;100.00
74268;BME280;62638;51.362;12.472;2022-11-03T04:19:34;100604.78;;;4.35;100.00
74268;BME280;62638;51.362;12.472;2022-11-03T04:22:19;100611.59;;;4.39;100.00
74268;BME280;62638;51.362;12.472;2022-11-03T04:24:47;100610.09;;;4.35;100.00
74268;BME280;62638;51.362;12.472;2022-11-03T04:27:34;100605.72;;;4.34;100.00
74268;BME280;62638;51.362;12.472;2022-11-03T04:32:30;100601.28;;;4.34;100.00
74268;BME280;62638;51.362;12.472;2022-11-03T04:34:55;100598.78;;;4.45;100.00
74268;BME280;62638;51.362;12.472;2022-11-03T04:37:27;100599.28;;;4.52;100.00
74268;BME280;62638;51.362;12.472;2022-11-03T04:39:58;100599.94;;;4.41;100.00
74268;BME280;62638;51.362;12.472;2022-11-03T04:42:25;100588.38;;;4.42;100.00
74268;BME280;62638;51.362;12.472;2022-11-03T04:44:51;100587.53;;;4.42;100.00
74268;BME280;62638;51.362;12.472;2022-11-03T04:47:17;100588.38;;;4.42;100.00
74268;BME280;62638;51.362;12.472;2022-11-03T04:49:46;100580.22;;;4.45;100.00
74268;BME280;62638;51.362;12.472;2022-11-03T04:54:40;100573.81;;;4.35;100.00
74268;BME280;62638;51.362;12.472;2022-11-03T04:57:11;100575.13;;;4.42;100.00
74268;BME280;62638;51.362;12.472;2022-11-03T04:59:37;100574.91;;;4.45;100.00
74268;BME280;62638;51.362;12.472;2022-11-03T05:02:07;100575.66;;;4.62;100.00
74268;BME280;62638;51.362;12.472;2022-11-03T05:04:34;100567.72;;;4.62;100.00
74268;BME280;62638;51.362;12.472;2022-11-03T05:06:59;100566.50;;;4.80;100.00
74268;BME280;62638;51.362;12.472;2022-11-03T05:09:29;100570.88;;;4.81;100.00
74268;BME280;62638;51.362;12.472;2022-11-03T05:11:55;100567.22;;;4.69;100.00
74268;BME280;62638;51.362;12.472;2022-11-03T05:14:23;100567.28;;;4.68;100.00
74268;BME280;62638;51.362;12.472;2022-11-03T05:16:51;100576.66;;;4.73;100.00
74268;BME280;62638;51.362;12.472;2022-11-03T05:19:22;100577.31;;;4.77;100.00
74268;BME280;62638;51.362;12.472;2022-11-03T05:21:49;100570.88;;;4.81;99.72
74268;BME280;62638;51.362;12.472;2022-11-03T05:24:15;100562.00;;;4.68;99.61
74268;BME280;62638;51.362;12.472;2022-11-03T05:26:43;100563.28;;;4.75;99.62
74268;BME280;62638;51.362;12.472;2022-11-03T05:29:13;100552.44;;;4.65;99.21
74268;BME280;62638;51.362;12.472;2022-11-03T05:31:41;100558.19;;;4.72;99.76
74268;BME280;62638;51.362;12.472;2022-11-03T05:36:41;100564.34;;;4.31;99.89
74268;BME280;62638;51.362;12.472;2022-11-03T05:39:24;100558.31;;;4.01;99.92
74268;BME280;62638;51.362;12.472;2022-11-03T05:41:50;100560.84;;;3.74;100.00
74268;BME280;62638;51.362;12.472;2022-11-03T05:44:33;100554.31;;;3.65;100.00
74268;BME280;62638;51.362;12.472;2022-11-03T05:47:02;100558.69;;;3.67;100.00
74268;BME280;62638;51.362;12.472;2022-11-03T05:49:29;100560.09;;;3.28;100.00
74268;BME280;62638;51.362;12.472;2022-11-03T05:51:54;100567.34;;;3.10;100.00
74268;BME280;62638;51.362;12.472;2022-11-03T05:54:23;100553.19;;;2.96;100.00
74268;BME280;62638;51.362;12.472;2022-11-03T05:56:49;100553.38;;;2.77;100.00
74268;BME280;62638;51.362;12.472;2022-11-03T05:59:21;100548.78;;;2.65;100.00
74268;BME280;62638;51.362;12.472;2022-11-03T06:01:47;100542.50;;;2.67;100.00
74268;BME280;62638;51.362;12.472;2022-11-03T06:04:21;100531.69;;;3.16;100.00
74268;BME280;62638;51.362;12.472;2022-11-03T06:06:54;100540.84;;;3.40;100.00
74268;BME280;62638;51.362;12.472;2022-11-03T06:09:22;100531.44;;;3.79;100.00
74268;BME280;62638;51.362;12.472;2022-11-03T06:11:51;100536.84;;;3.91;100.00
74268;BME280;62638;51.362;12.472;2022-11-03T06:14:19;100539.72;;;4.29;100.00
74268;BME280;62638;51.362;12.472;2022-11-03T06:16:48;100539.06;;;4.26;100.00
74268;BME280;62638;51.362;12.472;2022-11-03T06:19:30;100536.81;;;4.20;100.00
74268;BME280;62638;51.362;12.472;2022-11-03T06:22:00;100521.94;;;4.31;100.00
74268;BME280;62638;51.362;12.472;2022-11-03T06:24:30;100530.84;;;4.30;100.00
74268;BME280;62638;51.362;12.472;2022-11-03T06:26:56;100524.69;;;4.30;100.00
74268;BME280;62638;51.362;12.472;2022-11-03T06:29:22;100516.50;;;4.47;100.00
74268;BME280;62638;51.362;12.472;2022-11-03T06:31:49;100519.50;;;4.55;100.00
74268;BME280;62638;51.362;12.472;2022-11-03T06:34:36;100518.44;;;4.57;100.00
74268;BME280;62638;51.362;12.472;2022-11-03T06:37:12;100520.13;;;4.58;99.90
74268;BME280;62638;51.362;12.472;2022-11-03T06:39:40;100518.25;;;4.87;98.97
74268;BME280;62638;51.362;12.472;2022-11-03T06:42:10;100525.41;;;4.99;98.71
74268;BME280;62638;51.362;12.472;2022-11-03T06:44:39;100515.06;;;5.22;97.77
74268;BME280;62638;51.362;12.472;2022-11-03T06:47:33;100515.19;;;5.71;95.80
74268;BME280;62638;51.362;12.472;2022-11-03T06:49:59;100521.59;;;5.93;94.30
74268;BME280;62638;51.362;12.472;2022-11-03T06:52:32;100517.13;;;6.30;92.51
74268;BME280;62638;51.362;12.472;2022-11-03T06:57:38;100523.19;;;6.45;91.48
74268;BME280;62638;51.362;12.472;2022-11-03T07:00:20;100520.72;;;6.55;90.32
74268;BME280;62638;51.362;12.472;2022-11-03T07:05:31;100527.22;;;6.98;88.43
74268;BME280;62638;51.362;12.472;2022-11-03T07:07:59;100525.41;;;6.99;88.31
74268;BME280;62638;51.362;12.472;2022-11-03T07:10:28;100509.91;;;7.04;88.62
74268;BME280;62638;51.362;12.472;2022-11-03T07:12:55;100520.63;;;7.15;87.08
74268;BME280;62638;51.362;12.472;2022-11-03T07:15:31;100519.81;;;7.25;86.67
74268;BME280;62638;51.362;12.472;2022-11-03T07:17:58;100517.91;;;7.39;86.98
74268;BME280;62638;51.362;12.472;2022-11-03T07:20:25;100515.66;;;7.56;86.24
74268;BME280;62638;51.362;12.472;2022-11-03T07:22:51;100521.72;;;7.58;85.72
74268;BME280;62638;51.362;12.472;2022-11-03T07:25:20;100519.78;;;7.60;84.99
74268;BME280;62638;51.362;12.472;2022-11-03T07:27:50;100516.28;;;7.71;84.55
74268;BME280;62638;51.362;12.472;2022-11-03T07:30:19;100519.47;;;7.76;84.06
74268;BME280;62638;51.362;12.472;2022-11-03T07:32:47;100509.25;;;7.81;83.92
74268;BME280;62638;51.362;12.472;2022-11-03T07:37:43;100512.69;;;8.05;83.67
74268;BME280;62638;51.362;12.472;2022-11-03T07:40:21;100505.38;;;8.07;83.57
74268;BME280;62638;51.362;12.472;2022-11-03T07:42:47;100503.94;;;8.14;82.25
74268;BME280;62638;51.362;12.472;2022-11-03T07:45:36;100512.56;;;8.40;80.86
74268;BME280;62638;51.362;12.472;2022-11-03T07:48:24;100512.38;;;8.64;81.01
74268;BME280;62638;51.362;12.472;2022-11-03T07:50:53;100507.66;;;8.56;80.35
74268;BME280;62638;51.362;12.472;2022-11-03T07:53:35;100504.22;;;8.77;80.08
74268;BME280;62638;51.362;12.472;2022-11-03T07:56:24;100493.03;;;8.83;79.59
74268;BME280;62638;51.362;12.472;2022-11-03T07:58:53;100492.13;;;8.93;78.23
74268;BME280;62638;51.362;12.472;2022-11-03T08:04:00;100488.28;;;9.18;77.90
74268;BME280;62638;51.362;12.472;2022-11-03T08:06:26;100482.78;;;9.20;77.05
74268;BME280;62638;51.362;12.472;2022-11-03T08:08:51;100477.59;;;9.39;76.26
74268;BME280;62638;51.362;12.472;2022-11-03T08:11:17;100469.44;;;9.40;76.00
74268;BME280;62638;51.362;12.472;2022-11-03T08:13:42;100462.53;;;9.68;75.13
74268;BME280;62638;51.362;12.472;2022-11-03T08:16:07;100460.38;;;9.62;73.79
74268;BME280;62638;51.362;12.472;2022-11-03T08:18:33;100457.03;;;9.60;74.61
74268;BME280;62638;51.362;12.472;2022-11-03T08:20:58;100453.09;;;9.94;73.34
74268;BME280;62638;51.362;12.472;2022-11-03T08:23:23;100455.78;;;9.94;72.22
74268;BME280;62638;51.362;12.472;2022-11-03T08:25:49;100453.38;;;10.22;71.63
74268;BME280;62638;51.362;12.472;2022-11-03T08:28:14;100449.03;;;10.30;70.46
74268;BME280;62638;51.362;12.472;2022-11-03T08:30:39;100448.75;;;10.43;69.97
74268;BME280;62638;51.362;12.472;2022-11-03T08:33:05;100438.19;;;10.51;68.67
74268;BME280;62638;51.362;12.472;2022-11-03T08:35:30;100435.13;;;10.56;69.58
74268;BME280;62638;51.362;12.472;2022-11-03T08:37:56;100434.53;;;10.71;68.99
74268;BME280;62638;51.362;12.472;2022-11-03T08:40:21;100425.41;;;10.74;68.53
74268;BME280;62638;51.362;12.472;2022-11-03T08:42:46;100421.28;;;10.99;68.67
74268;BME280;62638;51.362;12.472;2022-11-03T08:45:12;100418.19;;;10.93;68.26
74268;BME280;62638;51.362;12.472;2022-11-03T08:47:37;100413.81;;;11.02;68.60
74268;BME280;62638;51.362;12.472;2022-11-03T08:50:03;100416.06;;;10.87;68.25
74268;BME280;62638;51.362;12.472;2022-11-03T08:52:29;100410.00;;;11.05;68.23
74268;BME280;62638;51.362;12.472;2022-11-03T08:54:54;100402.66;;;10.97;69.18
74268;BME280;62638;51.362;12.472;2022-11-03T08:57:20;100406.91;;;11.00;68.12
74268;BME280;62638;51.362;12.472;2022-11-03T08:59:45;100401.38;;;11.11;68.15
74268;BME280;62638;51.362;12.472;2022-11-03T09:02:10;100399.34;;;11.42;68.44
74268;BME280;62638;51.362;12.472;2022-11-03T09:04:36;100402.47;;;11.37;67.00
74268;BME280;62638;51.362;12.472;2022-11-03T09:07:01;100390.84;;;11.56;66.94
74268;BME280;62638;51.362;12.472;2022-11-03T09:09:27;100388.84;;;11.95;66.03
74268;BME280;62638;51.362;12.472;2022-11-03T09:11:52;100378.81;;;11.60;65.85
74268;BME280;62638;51.362;12.472;2022-11-03T09:14:17;100379.00;;;11.39;66.27
74268;BME280;62638;51.362;12.472;2022-11-03T09:16:43;100378.50;;;11.26;66.68
74268;BME280;62638;51.362;12.472;2022-11-03T09:19:08;100373.84;;;11.18;67.48
74268;BME280;62638;51.362;12.472;2022-11-03T09:21:34;100369.75;;;11.61;66.73
74268;BME280;62638;51.362;12.472;2022-11-03T09:23:59;100363.31;;;11.44;66.29
74268;BME280;62638;51.362;12.472;2022-11-03T09:26:25;100367.03;;;11.43;66.62
74268;BME280;62638;51.362;12.472;2022-11-03T09:28:51;100357.25;;;11.52;66.40
74268;BME280;62638;51.362;12.472;2022-11-03T09:31:17;100357.09;;;11.53;66.54
74268;BME280;62638;51.362;12.472;2022-11-03T09:33:43;100349.56;;;11.29;66.44
74268;BME280;62638;51.362;12.472;2022-11-03T09:36:09;100348.84;;;11.27;66.35
74268;BME280;62638;51.362;12.472;2022-11-03T09:38:34;100348.63;;;11.48;65.61
74268;BME280;62638;51.362;12.472;2022-11-03T09:41:01;100342.47;;;11.65;66.34
74268;BME280;62638;51.362;12.472;2022-11-03T09:43:27;100335.63;;;11.53;65.69
74268;BME280;62638;51.362;12.472;2022-11-03T09:45:52;100333.31;;;11.77;65.39
74268;BME280;62638;51.362;12.472;2022-11-03T09:48:18;100325.44;;;11.57;66.89
74268;BME280;62638;51.362;12.472;2022-11-03T09:50:45;100316.50;;;11.75;66.77
74268;BME280;62638;51.362;12.472;2022-11-03T09:53:13;100317.97;;;11.88;65.48
74268;BME280;62638;51.362;12.472;2022-11-03T09:55:39;100319.81;;;11.87;64.83
74268;BME280;62638;51.362;12.472;2022-11-03T09:58:15;100304.34;;;11.99;65.69
74268;BME280;62638;51.362;12.472;2022-11-03T10:00:41;100308.81;;;12.08;65.40
74268;BME280;62638;51.362;12.472;2022-11-03T10:03:11;100295.75;;;12.31;66.14
74268;BME280;62638;51.362;12.472;2022-11-03T10:05:38;100297.19;;;12.60;68.35
74268;BME280;62638;51.362;12.472;2022-11-03T10:08:13;100295.94;;;12.29;66.86
74268;BME280;62638;51.362;12.472;2022-11-03T10:10:42;100292.91;;;12.14;65.57
74268;BME280;62638;51.362;12.472;2022-11-03T10:13:10;100283.34;;;12.30;67.07
74268;BME280;62638;51.362;12.472;2022-11-03T10:15:41;100271.44;;;12.32;67.71
74268;BME280;62638;51.362;12.472;2022-11-03T10:18:08;100269.91;;;12.30;66.06
74268;BME280;62638;51.362;12.472;2022-11-03T10:20:34;100275.75;;;12.25;67.16
74268;BME280;62638;51.362;12.472;2022-11-03T10:22:59;100267.00;;;12.23;65.61
74268;BME280;62638;51.362;12.472;2022-11-03T10:25:29;100264.91;;;12.17;65.67
74268;BME280;62638;51.362;12.472;2022-11-03T10:28:27;100254.50;;;12.14;65.95
74268;BME280;62638;51.362;12.472;2022-11-03T10:35:54;100235.69;;;12.32;62.74
74268;BME280;62638;51.362;12.472;2022-11-03T10:38:33;100229.69;;;12.38;62.40
74268;BME280;62638;51.362;12.472;2022-11-03T10:41:15;100229.41;;;12.66;61.73
74268;BME280;62638;51.362;12.472;2022-11-03T10:43:43;100223.44;;;12.81;61.63
74268;BME280;62638;51.362;12.472;2022-11-03T10:46:18;100219.50;;;12.67;61.83
74268;BME280;62638;51.362;12.472;2022-11-03T10:49:01;100212.56;;;12.64;61.07
74268;BME280;62638;51.362;12.472;2022-11-03T10:51:27;100218.84;;;12.73;61.17
74268;BME280;62638;51.362;12.472;2022-11-03T10:53:54;100211.66;;;12.82;60.61
74268;BME280;62638;51.362;12.472;2022-11-03T10:56:20;100206.84;;;12.85;60.57
74268;BME280;62638;51.362;12.472;2022-11-03T10:58:45;100199.38;;;12.71;59.05
74268;BME280;62638;51.362;12.472;2022-11-03T11:01:11;100203.13;;;12.86;58.42
74268;BME280;62638;51.362;12.472;2022-11-03T11:03:41;100204.38;;;13.26;59.11
74268;BME280;62638;51.362;12.472;2022-11-03T11:08:48;100191.31;;;13.47;56.99
74268;BME280;62638;51.362;12.472;2022-11-03T11:11:18;100184.59;;;13.51;58.21
74268;BME280;62638;51.362;12.472;2022-11-03T11:14:20;100180.41;;;13.48;57.12
74268;BME280;62638;51.362;12.472;2022-11-03T11:16:58;100182.13;;;13.74;58.35
74268;BME280;62638;51.362;12.472;2022-11-03T11:19:25;100185.69;;;13.82;57.00
74268;BME280;62638;51.362;12.472;2022-11-03T11:30:00;100169.03;;;14.43;56.23
74268;BME280;62638;51.362;12.472;2022-11-03T11:35:06;100152.38;;;14.40;56.72
74268;BME280;62638;51.362;12.472;2022-11-03T11:37:33;100148.84;;;14.23;57.40
74268;BME280;62638;51.362;12.472;2022-11-03T11:39:59;100137.31;;;14.70;56.34
74268;BME280;62638;51.362;12.472;2022-11-03T11:42:24;100144.72;;;14.68;56.51
74268;BME280;62638;51.362;12.472;2022-11-03T11:44:51;100131.66;;;14.95;56.52
74268;BME280;62638;51.362;12.472;2022-11-03T11:55:05;100113.28;;;15.61;57.55
74268;BME280;62638;51.362;12.472;2022-11-03T11:57:33;100108.78;;;15.22;54.59
74268;BME280;62638;51.362;12.472;2022-11-03T11:59:59;100116.56;;;14.78;56.47
74268;BME280;62638;51.362;12.472;2022-11-03T12:02:28;100113.47;;;14.89;55.52
74268;BME280;62638;51.362;12.472;2022-11-03T12:04:57;100101.09;;;15.03;57.37
74268;BME280;62638;51.362;12.472;2022-11-03T12:07:31;100083.22;;;15.64;55.14
74268;BME280;62638;51.362;12.472;2022-11-03T12:10:18;100078.31;;;15.36;54.35
74268;BME280;62638;51.362;12.472;2022-11-03T12:12:45;100071.97;;;14.98;55.60
74268;BME280;62638;51.362;12.472;2022-11-03T12:18:42;100049.69;;;15.27;56.45
74268;BME280;62638;51.362;12.472;2022-11-03T12:21:09;100050.19;;;15.31;59.88
74268;BME280;62638;51.362;12.472;2022-11-03T12:23:40;100047.38;;;14.54;58.86
74268;BME280;62638;51.362;12.472;2022-11-03T12:26:18;100041.22;;;14.77;57.56
74268;BME280;62638;51.362;12.472;2022-11-03T12:29:04;100032.47;;;15.59;57.73
74268;BME280;62638;51.362;12.472;2022-11-03T12:31:29;100023.72;;;15.49;55.76
74268;BME280;62638;51.362;12.472;2022-11-03T12:33:54;100015.59;;;15.12;56.53
74268;BME280;62638;51.362;12.472;2022-11-03T12:36:20;100014.03;;;15.40;56.00
74268;BME280;62638;51.362;12.472;2022-11-03T12:38:45;100015.69;;;15.86;55.70
74268;BME280;62638;51.362;12.472;2022-11-03T12:41:10;100011.00;;;15.80;54.74
74268;BME280;62638;51.362;12.472;2022-11-03T12:43:49;100001.91;;;15.96;55.54
74268;BME280;62638;51.362;12.472;2022-11-03T12:46:15;99987.81;;;15.49;56.04
74268;BME280;62638;51.362;12.472;2022-11-03T12:48:41;99968.81;;;15.65;56.58
74268;BME280;62638;51.362;12.472;2022-11-03T12:51:15;99961.69;;;15.26;56.35
74268;BME280;62638;51.362;12.472;2022-11-03T12:53:41;99959.88;;;15.41;57.43
74268;BME280;62638;51.362;12.472;2022-11-03T12:56:07;99954.97;;;15.82;56.36
74268;BME280;62638;51.362;12.472;2022-11-03T12:58:33;99952.31;;;15.60;55.34
74268;BME280;62638;51.362;12.472;2022-11-03T13:00:59;99946.81;;;15.30;56.82
74268;BME280;62638;51.362;12.472;2022-11-03T13:03:25;99945.50;;;14.81;57.76
74268;BME280;62638;51.362;12.472;2022-11-03T13:05:51;99940.56;;;14.84;57.96
74268;BME280;62638;51.362;12.472;2022-11-03T13:08:16;99938.72;;;14.85;57.93
74268;BME280;62638;51.362;12.472;2022-11-03T13:10:42;99941.47;;;14.77;58.35
74268;BME280;62638;51.362;12.472;2022-11-03T13:13:07;99938.47;;;14.72;60.48
74268;BME280;62638;51.362;12.472;2022-11-03T13:15:33;99933.66;;;14.59;60.12
74268;BME280;62638;51.362;12.472;2022-11-03T13:17:58;99924.50;;;14.68;59.75
74268;BME280;62638;51.362;12.472;2022-11-03T13:20:24;99917.44;;;14.67;59.93
74268;BME280;62638;51.362;12.472;2022-11-03T13:22:49;99907.88;;;14.65;60.00
74268;BME280;62638;51.362;12.472;2022-11-03T13:25:15;99901.03;;;14.77;60.22
74268;BME280;62638;51.362;12.472;2022-11-03T13:27:40;99907.81;;;14.73;60.58
74268;BME280;62638;51.362;12.472;2022-11-03T13:30:07;99909.44;;;14.82;60.30
74268;BME280;62638;51.362;12.472;2022-11-03T13:32:32;99899.13;;;14.85;59.37
74268;BME280;62638;51.362;12.472;2022-11-03T13:34:57;99901.88;;;14.77;60.14
74268;BME280;62638;51.362;12.472;2022-11-03T13:37:23;99893.25;;;14.82;60.28
74268;BME280;62638;51.362;12.472;2022-11-03T13:39:48;99883.34;;;14.51;60.96
74268;BME280;62638;51.362;12.472;2022-11-03T13:42:13;99872.28;;;14.46;61.53
74268;BME280;62638;51.362;12.472;2022-11-03T13:44:39;99870.47;;;14.39;61.79
74268;BME280;62638;51.362;12.472;2022-11-03T13:47:04;99858.72;;;14.32;62.94
74268;BME280;62638;51.362;12.472;2022-11-03T13:49:29;99854.50;;;14.29;62.22
74268;BME280;62638;51.362;12.472;2022-11-03T13:51:55;99847.84;;;14.17;63.23